Time,TemperatureF,DewpointF,PressureIn,WindDirection,WindDirectionDegrees,WindSpeedMPH,WindSpeedGustMPH,Humidity,HourlyPrecipIn,Conditions,Clouds,dailyrainin,SoftwareType,DateUTC
2013-12-20 00:00:00,30.9,30.9,29.99,NW,315,0.0,0.0,100,0.00,,,0.04,WSDL version 423,2013-12-20 05:00:00,
2013-12-20 00:10:00,30.8,30.8,29.99,NW,315,0.0,0.0,100,0.00,,,0.00,WSDL version 423,2013-12-20 05:10:00,
2013-12-20 00:20:00,30.8,30.8,29.98,NW,315,0.0,0.0,100,0.00,,,0.00,WSDL version 423,2013-12-20 05:20:00,
2013-12-20 00:30:00,31.2,31.2,29.99,NW,315,0.0,0.0,100,0.00,,,0.00,WSDL version 423,2013-12-20 05:30:00,
2013-12-20 00:42:00,31.7,31.7,29.99,NW,315,0.0,0.0,100,0.00,,,0.00,WSDL version 423,2013-12-20 05:42:00,
2013-12-20 00:52:00,32.0,32.0,29.98,NW,315,0.0,0.0,100,0.00,,,0.00,WSDL version 423,2013-12-20 05:52:00,
2013-12-20 01:02:00,32.2,32.2,29.98,NW,315,0.0,0.0,100,0.00,,,0.00,WSDL version 423,2013-12-20 06:02:00,
2013-12-20 01:12:00,31.8,31.8,29.99,NW,315,0.0,0.0,100,0.00,,,0.00,WSDL version 423,2013-12-20 06:12:00,
2013-12-20 01:22:00,31.1,31.1,29.99,NW,315,0.0,0.0,100,0.00,,,0.00,WSDL version 423,2013-12-20 06:22:00,
2013-12-20 01:32:00,31.3,31.3,29.99,NW,315,0.0,0.0,100,0.00,,,0.00,WSDL version 423,2013-12-20 06:32:00,
2013-12-20 01:42:00,31.6,31.6,29.99,NW,315,0.0,0.0,100,0.00,,,0.00,WSDL version 423,2013-12-20 06:42:00,
2013-12-20 01:52:00,31.5,31.5,29.99,NW,315,0.0,0.0,100,0.00,,,0.00,WSDL version 423,2013-12-20 06:52:00,
2013-12-20 02:02:00,31.5,31.5,29.99,NW,315,0.0,0.0,100,0.00,,,0.00,WSDL version 423,2013-12-20 07:02:00,
2013-12-20 02:12:00,31.4,31.4,30.00,NW,315,0.0,0.0,100,0.00,,,0.00,WSDL version 423,2013-12-20 07:12:00,
2013-12-20 02:22:00,30.6,30.6,30.00,NW,315,0.0,0.0,100,0.00,,,0.00,WSDL version 423,2013-12-20 07:22:00,
2013-12-20 02:32:00,30.0,30.0,29.99,NW,315,0.0,0.0,100,0.00,,,0.00,WSDL version 423,2013-12-20 07:32:00,
2013-12-20 02:42:00,30.2,30.2,30.00,NW,315,0.0,0.0,100,0.00,,,0.00,WSDL version 423,2013-12-20 07:42:00,
2013-12-20 02:52:00,30.2,30.2,30.00,NW,315,0.0,0.0,100,0.00,,,0.00,WSDL version 423,2013-12-20 07:52:00,
2013-12-20 03:02:00,29.5,29.5,30.00,NW,315,0.0,0.0,100,0.00,,,0.00,WSDL version 423,2013-12-20 08:02:00,
2013-12-20 03:12:00,29.5,29.5,30.00,NW,315,0.0,0.0,100,0.00,,,0.00,WSDL version 423,2013-12-20 08:12:00,
2013-12-20 03:22:00,29.3,29.3,30.00,NW,315,0.0,0.0,100,0.00,,,0.00,WSDL version 423,2013-12-20 08:22:00,
2013-12-20 03:32:00,29.5,29.5,30.00,NW,315,0.0,0.0,100,0.00,,,0.00,WSDL version 423,2013-12-20 08:32:00,
2013-12-20 03:42:00,29.5,29.5,30.00,NW,315,0.0,0.0,100,0.00,,,0.00,WSDL version 423,2013-12-20 08:42:00,
2013-12-20 03:52:00,29.5,29.5,30.00,NW,315,0.0,0.0,100,0.00,,,0.00,WSDL version 423,2013-12-20 08:52:00,
2013-12-20 04:02:00,29.5,29.5,29.99,NW,315,0.0,0.0,100,0.00,,,0.00,WSDL version 423,2013-12-20 09:02:00,
2013-12-20 04:12:00,29.3,29.3,29.99,NW,315,0.0,0.0,100,0.00,,,0.00,WSDL version 423,2013-12-20 09:12:00,
2013-12-20 04:22:00,29.3,29.3,30.01,NW,315,0.0,0.0,100,0.00,,,0.00,WSDL version 423,2013-12-20 09:22:00,
2013-12-20 04:32:00,29.6,29.6,30.00,NW,315,0.0,0.0,100,0.00,,,0.00,WSDL version 423,2013-12-20 09:32:00,
2013-12-20 04:42:00,29.3,29.3,30.00,NW,315,0.0,0.0,100,0.00,,,0.00,WSDL version 423,2013-12-20 09:42:00,
2013-12-20 04:52:00,29.3,29.3,30.00,NW,315,0.0,0.0,100,0.00,,,0.00,WSDL version 423,2013-12-20 09:52:00,
2013-12-20 05:02:00,29.5,29.5,30.00,NW,315,0.0,0.0,100,0.00,,,0.00,WSDL version 423,2013-12-20 10:02:00,
2013-12-20 05:12:00,29.6,29.6,30.00,NW,315,0.0,0.0,100,0.00,,,0.00,WSDL version 423,2013-12-20 10:12:00,
2013-12-20 05:22:00,30.1,30.1,30.00,NW,315,0.0,0.0,100,0.00,,,0.00,WSDL version 423,2013-12-20 10:22:00,
2013-12-20 05:32:00,30.5,30.5,30.00,NW,315,0.0,2.2,100,0.00,,,0.00,WSDL version 423,2013-12-20 10:32:00,
2013-12-20 05:42:00,30.4,30.4,29.99,NW,315,0.0,0.0,100,0.00,,,0.00,WSDL version 423,2013-12-20 10:42:00,
2013-12-20 05:52:00,30.9,30.9,30.00,NW,315,0.0,0.0,100,0.00,,,0.00,WSDL version 423,2013-12-20 10:52:00,
2013-12-20 06:02:00,31.1,31.1,30.00,NW,315,0.0,0.0,100,0.00,,,0.00,WSDL version 423,2013-12-20 11:02:00,
2013-12-20 06:12:00,31.3,31.3,30.00,NW,315,0.0,0.0,100,0.00,,,0.00,WSDL version 423,2013-12-20 11:12:00,
2013-12-20 06:22:00,31.5,31.5,30.00,NW,315,0.0,0.0,100,0.00,,,0.00,WSDL version 423,2013-12-20 11:22:00,
2013-12-20 06:32:00,31.5,31.5,30.00,NW,315,0.0,0.0,100,0.00,,,0.00,WSDL version 423,2013-12-20 11:32:00,
2013-12-20 06:42:00,31.2,31.2,29.99,NW,315,0.0,0.0,100,0.00,,,0.00,WSDL version 423,2013-12-20 11:42:00,
2013-12-20 06:52:00,30.6,30.6,29.98,NW,315,0.0,0.0,100,0.00,,,0.00,WSDL version 423,2013-12-20 11:52:00,
2013-12-20 07:02:00,30.2,30.2,29.99,NW,315,0.0,0.0,100,0.00,,,0.00,WSDL version 423,2013-12-20 12:02:00,
2013-12-20 07:12:00,30.1,30.1,29.99,NW,315,0.0,0.0,100,0.00,,,0.00,WSDL version 423,2013-12-20 12:12:00,
2013-12-20 07:22:00,30.0,30.0,29.99,NW,315,0.0,0.0,100,0.00,,,0.00,WSDL version 423,2013-12-20 12:22:00,
2013-12-20 07:32:00,30.2,30.2,29.99,NW,315,0.0,0.0,100,0.00,,,0.00,WSDL version 423,2013-12-20 12:32:00,
2013-12-20 07:42:00,30.4,30.4,29.98,NW,315,0.0,0.0,100,0.00,,,0.00,WSDL version 423,2013-12-20 12:42:00,
2013-12-20 07:52:00,30.4,30.4,29.98,NW,315,0.0,0.0,100,-99.99,,,-99.99,WSDL version 423,2013-12-20 12:52:00,
2013-12-20 08:02:00,29.7,29.7,29.98,NW,315,0.0,0.0,100,0.00,,,0.00,WSDL version 423,2013-12-20 13:02:00,
2013-12-20 08:12:00,30.3,30.3,29.97,NW,315,0.0,0.0,100,0.00,,,0.00,WSDL version 423,2013-12-20 13:12:00,
2013-12-20 08:22:00,31.0,31.0,29.98,NW,315,0.0,0.0,100,0.00,,,0.00,WSDL version 423,2013-12-20 13:22:00,
2013-12-20 08:32:00,32.1,32.1,29.97,NW,315,0.0,0.0,100,0.00,,,0.00,WSDL version 423,2013-12-20 13:32:00,
2013-12-20 08:42:00,33.5,33.5,29.97,NW,315,0.0,0.0,100,0.00,,,0.00,WSDL version 423,2013-12-20 13:42:00,
2013-12-20 08:52:00,34.9,34.9,29.97,NW,315,0.0,0.0,100,0.00,,,0.00,WSDL version 423,2013-12-20 13:52:00,
2013-12-20 09:02:00,36.2,36.2,29.96,NW,315,0.0,0.0,100,-99.99,,,-99.99,WSDL version 423,2013-12-20 14:02:00,
2013-12-20 09:12:00,37.3,37.3,29.95,NW,315,0.0,2.2,100,0.00,,,0.00,WSDL version 423,2013-12-20 14:12:00,
2013-12-20 09:22:00,39.5,39.5,29.95,NW,315,0.0,0.0,100,0.00,,,0.00,WSDL version 423,2013-12-20 14:22:00,
2013-12-20 09:32:00,41.3,41.3,29.94,NW,315,0.0,2.2,100,0.00,,,0.00,WSDL version 423,2013-12-20 14:32:00,
2013-12-20 09:42:00,42.5,42.5,29.94,NW,315,0.0,2.7,100,0.00,,,0.00,WSDL version 423,2013-12-20 14:42:00,
2013-12-20 09:52:00,44.4,44.4,29.95,NW,315,0.0,3.1,100,0.00,,,0.00,WSDL version 423,2013-12-20 14:52:00,
2013-12-20 10:02:00,45.4,45.4,29.95,NW,315,0.0,3.6,100,0.00,,,0.00,WSDL version 423,2013-12-20 15:02:00,
2013-12-20 10:12:00,46.2,46.2,29.94,NW,315,0.0,4.0,100,0.00,,,0.00,WSDL version 423,2013-12-20 15:12:00,
2013-12-20 10:22:00,46.1,46.1,29.94,WNW,289,0.0,4.9,100,0.00,,,0.00,WSDL version 423,2013-12-20 15:22:00,
2013-12-20 10:32:00,46.5,46.5,29.93,SSE,158,0.0,4.0,100,0.04,,,0.04,WSDL version 423,2013-12-20 15:32:00,
2013-12-20 10:42:00,47.0,47.0,29.91,SSW,207,3.0,5.4,100,0.04,,,0.04,WSDL version 423,2013-12-20 15:42:00,
2013-12-20 10:52:00,47.0,47.0,29.91,South,180,0.0,3.6,100,0.04,,,0.04,WSDL version 423,2013-12-20 15:52:00,
2013-12-20 11:02:00,48.4,48.4,29.90,SSW,195,2.7,5.8,100,0.04,,,0.04,WSDL version 423,2013-12-20 16:02:00,
2013-12-20 11:12:00,49.9,49.9,29.89,SSW,197,2.8,5.8,100,0.04,,,0.04,WSDL version 423,2013-12-20 16:12:00,
2013-12-20 11:22:00,50.2,50.2,29.87,SSE,163,2.2,3.6,100,0.08,,,0.08,WSDL version 423,2013-12-20 16:22:00,
2013-12-20 11:32:00,50.3,50.3,29.87,SSE,166,0.0,4.0,100,0.04,,,0.08,WSDL version 423,2013-12-20 16:32:00,
2013-12-20 11:42:00,49.9,49.9,29.86,SSW,195,2.9,5.4,100,0.09,,,0.13,WSDL version 423,2013-12-20 16:42:00,
2013-12-20 11:52:00,50.6,50.6,29.86,SW,225,0.0,3.1,100,0.09,,,0.13,WSDL version 423,2013-12-20 16:52:00,
2013-12-20 12:02:00,51.6,51.6,29.84,South,170,1.5,4.9,100,0.13,,,0.16,WSDL version 423,2013-12-20 17:02:00,
2013-12-20 12:12:00,51.6,51.6,29.83,SW,225,0.0,8.1,100,0.13,,,0.16,WSDL version 423,2013-12-20 17:12:00,
2013-12-20 12:22:00,51.7,51.7,29.83,South,188,1.1,4.5,100,0.13,,,0.21,WSDL version 423,2013-12-20 17:22:00,
2013-12-20 12:32:00,51.4,51.4,29.82,SSW,211,0.0,4.9,100,0.13,,,0.21,WSDL version 423,2013-12-20 17:32:00,
2013-12-20 12:42:00,51.6,51.6,29.82,WSW,248,0.0,4.0,100,0.08,,,0.21,WSDL version 423,2013-12-20 17:42:00,
2013-12-20 12:52:00,51.8,51.8,29.81,SSW,212,1.3,3.6,100,0.12,,,0.25,WSDL version 423,2013-12-20 17:52:00,
2013-12-20 13:02:00,52.0,52.0,29.81,WSW,241,1.2,4.9,100,0.08,,,0.25,WSDL version 423,2013-12-20 18:02:00,
2013-12-20 13:12:00,52.7,52.7,29.80,ENE,68,0.0,3.6,100,0.08,,,0.25,WSDL version 423,2013-12-20 18:12:00,
2013-12-20 13:22:00,53.2,53.2,29.80,South,180,1.0,3.6,100,0.08,,,0.29,WSDL version 423,2013-12-20 18:22:00,
2013-12-20 13:32:00,53.0,53.0,29.80,SW,225,1.2,4.9,100,0.08,,,0.29,WSDL version 423,2013-12-20 18:32:00,
2013-12-20 13:42:00,53.0,53.0,29.80,SW,215,1.0,3.6,100,0.08,,,0.29,WSDL version 423,2013-12-20 18:42:00,
2013-12-20 13:52:00,52.1,52.1,29.79,SW,225,0.0,3.6,100,0.04,,,0.29,WSDL version 423,2013-12-20 18:52:00,
2013-12-20 14:02:00,51.3,51.3,29.80,SW,225,0.0,0.0,100,0.08,,,0.33,WSDL version 423,2013-12-20 19:02:00,
2013-12-20 14:12:00,51.1,51.1,29.80,WSW,248,0.0,3.1,100,0.08,,,0.33,WSDL version 423,2013-12-20 19:12:00,
2013-12-20 14:22:00,51.1,51.1,29.80,West,270,0.0,4.0,100,0.04,,,0.33,WSDL version 423,2013-12-20 19:22:00,
2013-12-20 14:32:00,50.2,50.2,29.80,West,270,0.0,3.1,100,0.04,,,0.33,WSDL version 423,2013-12-20 19:32:00,
2013-12-20 14:42:00,50.9,50.9,29.81,South,180,0.0,5.4,100,0.08,,,0.37,WSDL version 423,2013-12-20 19:42:00,
2013-12-20 14:52:00,50.5,50.5,29.80,SW,225,0.0,6.7,100,0.08,,,0.37,WSDL version 423,2013-12-20 19:52:00,
2013-12-20 15:02:00,50.1,50.1,29.80,SW,228,2.9,4.5,100,0.04,,,0.37,WSDL version 423,2013-12-20 20:02:00,
2013-12-20 15:12:00,49.4,49.4,29.80,West,278,0.0,3.6,100,0.04,,,0.37,WSDL version 423,2013-12-20 20:12:00,
2013-12-20 15:22:00,49.0,49.0,29.80,South,174,0.0,4.0,100,0.04,,,0.37,WSDL version 423,2013-12-20 20:22:00,
2013-12-20 15:32:00,48.4,48.4,29.80,WSW,248,1.1,4.5,100,0.04,,,0.37,WSDL version 423,2013-12-20 20:32:00,
2013-12-20 15:42:00,47.8,47.8,29.80,West,270,0.0,0.0,100,0.04,,,0.41,WSDL version 423,2013-12-20 20:42:00,
2013-12-20 15:52:00,47.3,47.3,29.80,West,270,0.0,3.6,100,0.04,,,0.41,WSDL version 423,2013-12-20 20:52:00,
2013-12-20 16:02:00,46.8,46.8,29.80,West,270,0.0,3.1,100,0.04,,,0.41,WSDL version 423,2013-12-20 21:02:00,
2013-12-20 16:12:00,46.1,46.1,29.80,West,270,0.0,2.7,100,0.04,,,0.41,WSDL version 423,2013-12-20 21:12:00,
2013-12-20 16:22:00,45.4,45.4,29.79,West,270,0.0,2.2,100,0.04,,,0.41,WSDL version 423,2013-12-20 21:22:00,
2013-12-20 16:32:00,45.0,45.0,29.79,West,270,0.0,0.0,100,0.04,,,0.41,WSDL version 423,2013-12-20 21:32:00,
2013-12-20 16:42:00,44.3,44.3,29.80,West,270,0.0,2.7,100,0.00,,,0.41,WSDL version 423,2013-12-20 21:42:00,
2013-12-20 16:52:00,44.1,44.1,29.80,West,270,0.0,0.0,100,0.00,,,0.41,WSDL version 423,2013-12-20 21:52:00,
2013-12-20 17:02:00,43.9,43.9,29.81,West,270,0.0,0.0,100,0.00,,,0.41,WSDL version 423,2013-12-20 22:02:00,
2013-12-20 17:12:00,43.1,43.1,29.81,West,270,0.0,0.0,100,0.00,,,0.41,WSDL version 423,2013-12-20 22:12:00,
2013-12-20 17:22:00,42.8,42.8,29.81,West,270,0.0,0.0,100,0.04,,,0.46,WSDL version 423,2013-12-20 22:22:00,
2013-12-20 17:32:00,42.6,42.6,29.81,West,270,0.0,0.0,100,0.04,,,0.46,WSDL version 423,2013-12-20 22:32:00,
2013-12-20 17:42:00,42.6,42.6,29.80,West,270,0.0,2.2,100,0.04,,,0.46,WSDL version 423,2013-12-20 22:42:00,
2013-12-20 17:52:00,42.7,42.7,29.80,West,270,0.0,2.2,100,0.04,,,0.46,WSDL version 423,2013-12-20 22:52:00,
2013-12-20 18:02:00,42.9,42.9,29.80,West,270,0.0,3.1,100,0.04,,,0.46,WSDL version 423,2013-12-20 23:02:00,
2013-12-20 18:12:00,43.5,43.5,29.81,West,270,0.0,3.6,100,0.04,,,0.46,WSDL version 423,2013-12-20 23:12:00,
2013-12-20 18:22:00,43.7,43.7,29.81,West,270,0.0,2.7,100,0.00,,,0.46,WSDL version 423,2013-12-20 23:22:00,
2013-12-20 18:32:00,43.6,43.6,29.81,West,270,0.0,0.0,100,0.00,,,0.46,WSDL version 423,2013-12-20 23:32:00,
2013-12-20 18:42:00,43.3,43.3,29.81,West,270,0.0,2.7,100,0.00,,,0.46,WSDL version 423,2013-12-20 23:42:00,
2013-12-20 18:52:00,43.1,43.1,29.81,West,270,0.0,2.2,100,0.00,,,0.46,WSDL version 423,2013-12-20 23:52:00,
2013-12-20 19:02:00,42.7,42.7,29.82,West,270,0.0,0.0,100,0.00,,,0.46,WSDL version 423,2013-12-21 00:02:00,
2013-12-20 19:12:00,42.5,42.5,29.83,West,270,0.0,0.0,100,0.00,,,0.46,WSDL version 423,2013-12-21 00:12:00,
2013-12-20 19:22:00,42.3,42.3,29.83,West,270,0.0,2.7,100,0.00,,,0.46,WSDL version 423,2013-12-21 00:22:00,
2013-12-20 19:32:00,42.3,42.3,29.82,West,270,0.0,0.0,100,0.00,,,0.46,WSDL version 423,2013-12-21 00:32:00,
2013-12-20 19:42:00,41.8,41.8,29.82,West,270,0.0,2.7,100,0.00,,,0.46,WSDL version 423,2013-12-21 00:42:00,
2013-12-20 19:52:00,41.2,41.2,29.83,West,270,0.0,0.0,100,0.00,,,0.46,WSDL version 423,2013-12-21 00:52:00,
2013-12-20 20:02:00,40.8,40.8,29.82,West,270,0.0,0.0,100,0.00,,,0.46,WSDL version 423,2013-12-21 01:02:00,
2013-12-20 20:12:00,40.5,40.5,29.83,West,270,0.0,0.0,100,0.00,,,0.46,WSDL version 423,2013-12-21 01:12:00,
2013-12-20 20:22:00,40.6,40.6,29.84,West,270,0.0,0.0,100,0.00,,,0.46,WSDL version 423,2013-12-21 01:22:00,
2013-12-20 20:32:00,40.6,40.6,29.84,West,270,0.0,0.0,100,0.00,,,0.46,WSDL version 423,2013-12-21 01:32:00,
2013-12-20 20:42:00,40.5,40.5,29.84,West,270,0.0,0.0,100,0.00,,,0.46,WSDL version 423,2013-12-21 01:42:00,
2013-12-20 20:52:00,40.0,40.0,29.84,West,270,0.0,0.0,100,0.04,,,0.50,WSDL version 423,2013-12-21 01:52:00,
2013-12-20 21:02:00,39.8,39.8,29.83,West,270,0.0,0.0,100,0.04,,,0.50,WSDL version 423,2013-12-21 02:02:00,
2013-12-20 21:12:00,39.4,39.4,29.84,West,270,0.0,0.0,100,0.04,,,0.50,WSDL version 423,2013-12-21 02:12:00,
2013-12-20 21:22:00,39.6,39.6,29.84,West,270,0.0,2.7,100,0.04,,,0.50,WSDL version 423,2013-12-21 02:22:00,
2013-12-20 21:32:00,39.4,39.4,29.84,West,270,0.0,2.7,100,0.04,,,0.50,WSDL version 423,2013-12-21 02:32:00,
2013-12-20 21:42:00,39.4,39.4,29.84,West,270,0.0,3.6,100,0.04,,,0.50,WSDL version 423,2013-12-21 02:42:00,
2013-12-20 21:52:00,39.3,39.3,29.83,West,270,0.0,0.0,100,0.00,,,0.50,WSDL version 423,2013-12-21 02:52:00,
2013-12-20 22:02:00,39.4,39.4,29.83,West,270,0.0,0.0,100,0.00,,,0.50,WSDL version 423,2013-12-21 03:02:00,
2013-12-20 22:12:00,39.8,39.8,29.82,West,270,0.0,2.7,100,0.00,,,0.50,WSDL version 423,2013-12-21 03:12:00,
2013-12-20 22:22:00,40.0,40.0,29.83,West,270,0.0,3.6,100,0.00,,,0.50,WSDL version 423,2013-12-21 03:22:00,
2013-12-20 22:32:00,40.2,40.2,29.82,West,270,0.0,0.0,100,0.00,,,0.50,WSDL version 423,2013-12-21 03:32:00,
2013-12-20 22:42:00,40.4,40.4,29.82,West,270,0.0,3.6,100,0.00,,,0.50,WSDL version 423,2013-12-21 03:42:00,
2013-12-20 22:52:00,40.5,40.5,29.83,West,270,0.0,3.6,100,0.00,,,0.50,WSDL version 423,2013-12-21 03:52:00,
2013-12-20 23:02:00,40.6,40.6,29.82,SSE,158,0.0,3.6,100,0.00,,,0.50,WSDL version 423,2013-12-21 04:02:00,
2013-12-20 23:12:00,40.6,40.6,29.83,SSW,203,0.0,2.2,100,0.00,,,0.50,WSDL version 423,2013-12-21 04:12:00,
2013-12-20 23:22:00,40.6,40.6,29.83,SSW,203,0.0,2.7,100,0.00,,,0.50,WSDL version 423,2013-12-21 04:22:00,
2013-12-20 23:32:00,40.5,40.5,29.83,SSW,203,0.0,0.0,100,0.00,,,0.50,WSDL version 423,2013-12-21 04:32:00,
2013-12-20 23:42:00,41.1,41.1,29.82,West,273,0.0,4.0,100,0.00,,,0.50,WSDL version 423,2013-12-21 04:42:00,
2013-12-20 23:52:00,40.9,40.9,29.82,SSE,158,0.0,3.6,100,0.00,,,0.50,WSDL version 423,2013-12-21 04:52:00,